sensor_id;sensor_type;location;lat;lon;timestamp;P1;durP1;ratioP1;P2;durP2;ratioP2
34403;SDS011;23116;47.660;9.126;2023-04-07T00:04:46;2.60;;;2.10;;
34403;SDS011;23116;47.660;9.126;2023-04-07T00:07:17;2.25;;;2.10;;
34403;SDS011;23116;47.660;9.126;2023-04-07T00:12:43;2.10;;;1.85;;
34403;SDS011;23116;47.660;9.126;2023-04-07T00:15:11;2.47;;;2.28;;
34403;SDS011;23116;47.660;9.126;2023-04-07T00:17:38;2.38;;;2.13;;
34403;SDS011;23116;47.660;9.126;2023-04-07T00:20:09;3.08;;;2.53;;
34403;SDS011;23116;47.660;9.126;2023-04-07T00:22:37;2.47;;;2.28;;
34403;SDS011;23116;47.660;9.126;2023-04-07T00:25:16;3.45;;;2.63;;
34403;SDS011;23116;47.660;9.126;2023-04-07T00:31:25;2.53;;;2.30;;
34403;SDS011;23116;47.660;9.126;2023-04-07T00:34:01;2.60;;;2.40;;
34403;SDS011;23116;47.660;9.126;2023-04-07T00:36:37;3.00;;;2.72;;
34403;SDS011;23116;47.660;9.126;2023-04-07T00:39:08;3.70;;;2.80;;
34403;SDS011;23116;47.660;9.126;2023-04-07T00:41:36;3.58;;;3.00;;
34403;SDS011;23116;47.660;9.126;2023-04-07T00:44:22;2.80;;;2.50;;
34403;SDS011;23116;47.660;9.126;2023-04-07T00:47:02;3.17;;;2.85;;
34403;SDS011;23116;47.660;9.126;2023-04-07T00:49:35;2.42;;;2.22;;
34403;SDS011;23116;47.660;9.126;2023-04-07T00:52:06;3.00;;;2.70;;
34403;SDS011;23116;47.660;9.126;2023-04-07T00:55:07;2.85;;;2.35;;
34403;SDS011;23116;47.660;9.126;2023-04-07T00:57:49;2.70;;;2.40;;
34403;SDS011;23116;47.660;9.126;2023-04-07T01:00:17;2.50;;;2.22;;
34403;SDS011;23116;47.660;9.126;2023-04-07T01:03:08;2.25;;;2.08;;
34403;SDS011;23116;47.660;9.126;2023-04-07T01:05:41;2.30;;;2.10;;
34403;SDS011;23116;47.660;9.126;2023-04-07T01:11:16;2.25;;;2.05;;
34403;SDS011;23116;47.660;9.126;2023-04-07T01:13:52;2.53;;;2.33;;
34403;SDS011;23116;47.660;9.126;2023-04-07T01:19:18;2.53;;;2.33;;
34403;SDS011;23116;47.660;9.126;2023-04-07T01:22:13;2.40;;;2.05;;
34403;SDS011;23116;47.660;9.126;2023-04-07T01:27:35;2.63;;;2.42;;
34403;SDS011;23116;47.660;9.126;2023-04-07T01:30:13;2.42;;;2.22;;
34403;SDS011;23116;47.660;9.126;2023-04-07T01:32:42;2.40;;;2.03;;
34403;SDS011;23116;47.660;9.126;2023-04-07T01:35:15;2.45;;;2.25;;
34403;SDS011;23116;47.660;9.126;2023-04-07T01:37:44;2.22;;;2.03;;
34403;SDS011;23116;47.660;9.126;2023-04-07T01:40:13;2.88;;;2.50;;
34403;SDS011;23116;47.660;9.126;2023-04-07T01:42:41;2.53;;;2.33;;
34403;SDS011;23116;47.660;9.126;2023-04-07T01:45:10;2.95;;;2.55;;
34403;SDS011;23116;47.660;9.126;2023-04-07T01:47:37;2.10;;;1.77;;
34403;SDS011;23116;47.660;9.126;2023-04-07T01:50:05;2.47;;;2.28;;
34403;SDS011;23116;47.660;9.126;2023-04-07T01:52:34;1.90;;;1.70;;
34403;SDS011;23116;47.660;9.126;2023-04-07T01:55:05;2.72;;;2.53;;
34403;SDS011;23116;47.660;9.126;2023-04-07T01:57:34;2.30;;;1.97;;
34403;SDS011;23116;47.660;9.126;2023-04-07T02:00:01;2.67;;;2.13;;
34403;SDS011;23116;47.660;9.126;2023-04-07T02:02:43;2.70;;;1.85;;
34403;SDS011;23116;47.660;9.126;2023-04-07T02:06:06;2.47;;;2.28;;
34403;SDS011;23116;47.660;9.126;2023-04-07T02:08:41;2.28;;;2.08;;
34403;SDS011;23116;47.660;9.126;2023-04-07T02:14:07;2.20;;;1.60;;
34403;SDS011;23116;47.660;9.126;2023-04-07T02:16:44;3.15;;;1.45;;
34403;SDS011;23116;47.660;9.126;2023-04-07T02:19:16;2.60;;;1.98;;
34403;SDS011;23116;47.660;9.126;2023-04-07T02:22:33;2.10;;;1.90;;
34403;SDS011;23116;47.660;9.126;2023-04-07T02:27:56;1.77;;;1.67;;
34403;SDS011;23116;47.660;9.126;2023-04-07T02:30:30;2.10;;;1.90;;
34403;SDS011;23116;47.660;9.126;2023-04-07T02:33:02;2.50;;;2.30;;
34403;SDS011;23116;47.660;9.126;2023-04-07T02:35:41;2.65;;;2.38;;
34403;SDS011;23116;47.660;9.126;2023-04-07T02:38:12;2.80;;;2.00;;
34403;SDS011;23116;47.660;9.126;2023-04-07T02:40:55;2.00;;;1.88;;
34403;SDS011;23116;47.660;9.126;2023-04-07T02:43:32;2.00;;;1.70;;
34403;SDS011;23116;47.660;9.126;2023-04-07T02:46:15;2.75;;;2.47;;
34403;SDS011;23116;47.660;9.126;2023-04-07T02:48:51;2.05;;;1.95;;
34403;SDS011;23116;47.660;9.126;2023-04-07T02:51:22;2.25;;;2.05;;
34403;SDS011;23116;47.660;9.126;2023-04-07T02:54:03;2.92;;;2.10;;
34403;SDS011;23116;47.660;9.126;2023-04-07T02:56:40;2.22;;;2.00;;
34403;SDS011;23116;47.660;9.126;2023-04-07T03:02:38;2.15;;;1.95;;
34403;SDS011;23116;47.660;9.126;2023-04-07T03:07:34;2.20;;;2.00;;
34403;SDS011;23116;47.660;9.126;2023-04-07T03:10:01;2.10;;;1.90;;
34403;SDS011;23116;47.660;9.126;2023-04-07T03:12:29;1.67;;;1.58;;
34403;SDS011;23116;47.660;9.126;2023-04-07T03:14:56;1.80;;;1.70;;
34403;SDS011;23116;47.660;9.126;2023-04-07T03:17:23;1.90;;;1.77;;
34403;SDS011;23116;47.660;9.126;2023-04-07T03:19:51;2.97;;;2.30;;
34403;SDS011;23116;47.660;9.126;2023-04-07T03:22:18;2.53;;;1.80;;
34403;SDS011;23116;47.660;9.126;2023-04-07T03:24:45;3.00;;;1.88;;
34403;SDS011;23116;47.660;9.126;2023-04-07T03:27:12;2.20;;;1.85;;
34403;SDS011;23116;47.660;9.126;2023-04-07T03:29:41;2.55;;;2.00;;
34403;SDS011;23116;47.660;9.126;2023-04-07T03:32:08;2.33;;;1.67;;
34403;SDS011;23116;47.660;9.126;2023-04-07T03:34:36;1.75;;;1.65;;
34403;SDS011;23116;47.660;9.126;2023-04-07T03:37:03;2.40;;;1.95;;
34403;SDS011;23116;47.660;9.126;2023-04-07T03:39:30;1.80;;;1.67;;
34403;SDS011;23116;47.660;9.126;2023-04-07T03:41:57;2.45;;;1.95;;
34403;SDS011;23116;47.660;9.126;2023-04-07T03:44:25;1.75;;;1.65;;
34403;SDS011;23116;47.660;9.126;2023-04-07T03:46:52;2.17;;;1.98;;
34403;SDS011;23116;47.660;9.126;2023-04-07T03:49:22;1.70;;;1.60;;
34403;SDS011;23116;47.660;9.126;2023-04-07T03:51:49;2.58;;;1.95;;
34403;SDS011;23116;47.660;9.126;2023-04-07T03:54:16;1.92;;;1.75;;
34403;SDS011;23116;47.660;9.126;2023-04-07T03:56:43;2.38;;;2.17;;
34403;SDS011;23116;47.660;9.126;2023-04-07T03:59:10;2.95;;;2.10;;
34403;SDS011;23116;47.660;9.126;2023-04-07T04:01:37;2.53;;;2.33;;
34403;SDS011;23116;47.660;9.126;2023-04-07T04:04:04;2.45;;;1.90;;
34403;SDS011;23116;47.660;9.126;2023-04-07T04:06:31;2.10;;;1.85;;
34403;SDS011;23116;47.660;9.126;2023-04-07T04:08:59;2.13;;;1.92;;
34403;SDS011;23116;47.660;9.126;2023-04-07T04:11:35;1.90;;;1.80;;
34403;SDS011;23116;47.660;9.126;2023-04-07T04:14:02;2.30;;;2.10;;
34403;SDS011;23116;47.660;9.126;2023-04-07T04:16:30;2.53;;;2.03;;
34403;SDS011;23116;47.660;9.126;2023-04-07T04:19:00;3.75;;;2.72;;
34403;SDS011;23116;47.660;9.126;2023-04-07T04:21:27;3.25;;;2.63;;
34403;SDS011;23116;47.660;9.126;2023-04-07T04:23:55;3.75;;;1.98;;
34403;SDS011;23116;47.660;9.126;2023-04-07T04:26:23;3.50;;;2.33;;
34403;SDS011;23116;47.660;9.126;2023-04-07T04:28:50;2.15;;;1.83;;
34403;SDS011;23116;47.660;9.126;2023-04-07T04:31:17;2.33;;;2.13;;
34403;SDS011;23116;47.660;9.126;2023-04-07T04:33:45;2.20;;;1.83;;
34403;SDS011;23116;47.660;9.126;2023-04-07T04:36:12;1.88;;;1.65;;
34403;SDS011;23116;47.660;9.126;2023-04-07T04:38:39;2.55;;;2.35;;
34403;SDS011;23116;47.660;9.126;2023-04-07T04:41:06;2.20;;;2.00;;
34403;SDS011;23116;47.660;9.126;2023-04-07T04:43:33;3.53;;;2.10;;
34403;SDS011;23116;47.660;9.126;2023-04-07T04:46:01;2.35;;;1.88;;
34403;SDS011;23116;47.660;9.126;2023-04-07T04:48:28;2.10;;;1.92;;
34403;SDS011;23116;47.660;9.126;2023-04-07T04:50:55;1.70;;;1.60;;
34403;SDS011;23116;47.660;9.126;2023-04-07T04:53:22;2.75;;;2.15;;
34403;SDS011;23116;47.660;9.126;2023-04-07T04:55:49;3.05;;;2.25;;
34403;SDS011;23116;47.660;9.126;2023-04-07T04:58:17;2.47;;;1.98;;
34403;SDS011;23116;47.660;9.126;2023-04-07T05:00:45;2.42;;;2.22;;
34403;SDS011;23116;47.660;9.126;2023-04-07T05:03:13;2.20;;;2.00;;
34403;SDS011;23116;47.660;9.126;2023-04-07T05:05:40;3.30;;;1.83;;
34403;SDS011;23116;47.660;9.126;2023-04-07T05:08:09;2.20;;;1.92;;
34403;SDS011;23116;47.660;9.126;2023-04-07T05:10:37;1.88;;;1.77;;
34403;SDS011;23116;47.660;9.126;2023-04-07T05:13:05;2.33;;;1.92;;
34403;SDS011;23116;47.660;9.126;2023-04-07T05:15:32;3.45;;;2.20;;
34403;SDS011;23116;47.660;9.126;2023-04-07T05:17:59;2.85;;;2.47;;
34403;SDS011;23116;47.660;9.126;2023-04-07T05:20:26;3.20;;;2.22;;
34403;SDS011;23116;47.660;9.126;2023-04-07T05:22:54;2.92;;;2.55;;
34403;SDS011;23116;47.660;9.126;2023-04-07T05:25:21;2.50;;;2.30;;
34403;SDS011;23116;47.660;9.126;2023-04-07T05:27:48;2.70;;;2.30;;
34403;SDS011;23116;47.660;9.126;2023-04-07T05:32:49;2.17;;;1.98;;
34403;SDS011;23116;47.660;9.126;2023-04-07T05:35:17;2.15;;;1.85;;
34403;SDS011;23116;47.660;9.126;2023-04-07T05:37:45;2.45;;;2.10;;
34403;SDS011;23116;47.660;9.126;2023-04-07T05:40:12;2.45;;;2.25;;
34403;SDS011;23116;47.660;9.126;2023-04-07T05:42:39;3.03;;;1.85;;
34403;SDS011;23116;47.660;9.126;2023-04-07T05:45:07;5.38;;;1.90;;
34403;SDS011;23116;47.660;9.126;2023-04-07T05:47:35;2.33;;;1.83;;
34403;SDS011;23116;47.660;9.126;2023-04-07T05:50:02;2.10;;;1.90;;
34403;SDS011;23116;47.660;9.126;2023-04-07T05:52:30;2.75;;;1.83;;
34403;SDS011;23116;47.660;9.126;2023-04-07T05:54:57;2.05;;;1.85;;
34403;SDS011;23116;47.660;9.126;2023-04-07T05:57:25;1.80;;;1.65;;
34403;SDS011;23116;47.660;9.126;2023-04-07T05:59:52;2.72;;;2.30;;
34403;SDS011;23116;47.660;9.126;2023-04-07T06:02:19;1.77;;;1.67;;
34403;SDS011;23116;47.660;9.126;2023-04-07T06:04:46;2.42;;;2.03;;
34403;SDS011;23116;47.660;9.126;2023-04-07T06:07:13;2.47;;;2.20;;
34403;SDS011;23116;47.660;9.126;2023-04-07T06:09:41;3.20;;;2.30;;
34403;SDS011;23116;47.660;9.126;2023-04-07T06:12:08;2.85;;;2.22;;
34403;SDS011;23116;47.660;9.126;2023-04-07T06:17:34;2.50;;;2.13;;
34403;SDS011;23116;47.660;9.126;2023-04-07T06:20:10;2.85;;;2.30;;
34403;SDS011;23116;47.660;9.126;2023-04-07T06:22:37;2.50;;;2.30;;
34403;SDS011;23116;47.660;9.126;2023-04-07T06:25:05;2.90;;;2.70;;
34403;SDS011;23116;47.660;9.126;2023-04-07T06:30:55;2.80;;;2.60;;
34403;SDS011;23116;47.660;9.126;2023-04-07T06:33:25;3.05;;;2.75;;
34403;SDS011;23116;47.660;9.126;2023-04-07T06:35:53;3.15;;;2.63;;
34403;SDS011;23116;47.660;9.126;2023-04-07T06:38:27;2.47;;;2.28;;
34403;SDS011;23116;47.660;9.126;2023-04-07T06:40:58;3.45;;;2.80;;
34403;SDS011;23116;47.660;9.126;2023-04-07T06:43:32;4.88;;;2.13;;
34403;SDS011;23116;47.660;9.126;2023-04-07T06:46:11;4.15;;;2.78;;
34403;SDS011;23116;47.660;9.126;2023-04-07T06:48:48;2.60;;;2.40;;
34403;SDS011;23116;47.660;9.126;2023-04-07T06:51:18;3.33;;;1.80;;
34403;SDS011;23116;47.660;9.126;2023-04-07T06:53:57;2.17;;;2.05;;
34403;SDS011;23116;47.660;9.126;2023-04-07T06:56:46;2.15;;;2.00;;
34403;SDS011;23116;47.660;9.126;2023-04-07T06:59:25;2.50;;;2.17;;
34403;SDS011;23116;47.660;9.126;2023-04-07T07:01:57;2.08;;;1.73;;
34403;SDS011;23116;47.660;9.126;2023-04-07T07:04:24;2.17;;;1.95;;
34403;SDS011;23116;47.660;9.126;2023-04-07T07:06:51;2.85;;;2.00;;
34403;SDS011;23116;47.660;9.126;2023-04-07T07:09:20;2.47;;;2.28;;
34403;SDS011;23116;47.660;9.126;2023-04-07T07:11:47;2.60;;;2.38;;
34403;SDS011;23116;47.660;9.126;2023-04-07T07:14:14;4.93;;;2.35;;
34403;SDS011;23116;47.660;9.126;2023-04-07T07:16:41;2.65;;;2.45;;
34403;SDS011;23116;47.660;9.126;2023-04-07T07:19:08;2.72;;;2.53;;
34403;SDS011;23116;47.660;9.126;2023-04-07T07:21:35;2.97;;;2.55;;
34403;SDS011;23116;47.660;9.126;2023-04-07T07:24:03;2.90;;;2.22;;
34403;SDS011;23116;47.660;9.126;2023-04-07T07:30:33;3.65;;;2.13;;
34403;SDS011;23116;47.660;9.126;2023-04-07T07:33:00;3.20;;;2.90;;
34403;SDS011;23116;47.660;9.126;2023-04-07T07:35:27;2.30;;;2.10;;
34403;SDS011;23116;47.660;9.126;2023-04-07T07:37:56;2.60;;;2.25;;
34403;SDS011;23116;47.660;9.126;2023-04-07T07:40:23;3.20;;;2.53;;
34403;SDS011;23116;47.660;9.126;2023-04-07T07:42:50;2.90;;;2.70;;
34403;SDS011;23116;47.660;9.126;2023-04-07T07:45:18;3.35;;;2.63;;
34403;SDS011;23116;47.660;9.126;2023-04-07T07:47:48;2.58;;;2.38;;
34403;SDS011;23116;47.660;9.126;2023-04-07T07:50:15;2.08;;;1.98;;
34403;SDS011;23116;47.660;9.126;2023-04-07T07:52:42;2.30;;;2.10;;
34403;SDS011;23116;47.660;9.126;2023-04-07T07:55:10;2.47;;;2.28;;
34403;SDS011;23116;47.660;9.126;2023-04-07T07:57:37;2.60;;;2.40;;
34403;SDS011;23116;47.660;9.126;2023-04-07T08:00:04;2.42;;;2.22;;
34403;SDS011;23116;47.660;9.126;2023-04-07T08:02:32;2.20;;;2.00;;
34403;SDS011;23116;47.660;9.126;2023-04-07T08:05:00;2.38;;;2.17;;
34403;SDS011;23116;47.660;9.126;2023-04-07T08:07:27;3.45;;;2.30;;
34403;SDS011;23116;47.660;9.126;2023-04-07T08:09:56;2.25;;;2.05;;
34403;SDS011;23116;47.660;9.126;2023-04-07T08:13:33;2.83;;;2.47;;
34403;SDS011;23116;47.660;9.126;2023-04-07T08:16:12;3.38;;;2.30;;
34403;SDS011;23116;47.660;9.126;2023-04-07T08:18:40;1.90;;;1.80;;
34403;SDS011;23116;47.660;9.126;2023-04-07T08:21:17;2.50;;;2.30;;
34403;SDS011;23116;47.660;9.126;2023-04-07T08:23:47;2.30;;;2.05;;
34403;SDS011;23116;47.660;9.126;2023-04-07T08:26:55;2.38;;;2.17;;
34403;SDS011;23116;47.660;9.126;2023-04-07T08:29:28;2.28;;;2.08;;
34403;SDS011;23116;47.660;9.126;2023-04-07T08:32:16;2.33;;;2.17;;
34403;SDS011;23116;47.660;9.126;2023-04-07T08:34:54;2.15;;;2.00;;
34403;SDS011;23116;47.660;9.126;2023-04-07T08:37:27;2.47;;;2.27;;
34403;SDS011;23116;47.660;9.126;2023-04-07T08:40:23;2.30;;;2.10;;
34403;SDS011;23116;47.660;9.126;2023-04-07T08:45:23;2.60;;;2.40;;
34403;SDS011;23116;47.660;9.126;2023-04-07T08:48:01;2.10;;;1.90;;
34403;SDS011;23116;47.660;9.126;2023-04-07T08:50:43;2.95;;;2.53;;
34403;SDS011;23116;47.660;9.126;2023-04-07T08:56:23;2.33;;;2.20;;
34403;SDS011;23116;47.660;9.126;2023-04-07T08:59:23;2.92;;;2.30;;
34403;SDS011;23116;47.660;9.126;2023-04-07T09:01:53;2.58;;;2.30;;
34403;SDS011;23116;47.660;9.126;2023-04-07T09:04:21;2.55;;;2.35;;
34403;SDS011;23116;47.660;9.126;2023-04-07T09:06:49;2.88;;;2.40;;
34403;SDS011;23116;47.660;9.126;2023-04-07T09:09:16;2.65;;;2.45;;
34403;SDS011;23116;47.660;9.126;2023-04-07T09:11:43;2.58;;;2.38;;
34403;SDS011;23116;47.660;9.126;2023-04-07T09:14:12;2.33;;;2.13;;
34403;SDS011;23116;47.660;9.126;2023-04-07T09:16:40;2.78;;;2.53;;
34403;SDS011;23116;47.660;9.126;2023-04-07T09:19:07;2.60;;;2.40;;
34403;SDS011;23116;47.660;9.126;2023-04-07T09:21:47;2.33;;;2.13;;
34403;SDS011;23116;47.660;9.126;2023-04-07T09:24:26;2.30;;;2.10;;
34403;SDS011;23116;47.660;9.126;2023-04-07T09:27:13;2.42;;;2.22;;
34403;SDS011;23116;47.660;9.126;2023-04-07T09:29:46;2.17;;;2.00;;
34403;SDS011;23116;47.660;9.126;2023-04-07T09:35:03;2.47;;;2.28;;
34403;SDS011;23116;47.660;9.126;2023-04-07T09:37:30;3.42;;;2.33;;
34403;SDS011;23116;47.660;9.126;2023-04-07T09:39:58;2.72;;;2.45;;
34403;SDS011;23116;47.660;9.126;2023-04-07T09:42:26;2.97;;;2.67;;
34403;SDS011;23116;47.660;9.126;2023-04-07T09:44:59;3.38;;;2.83;;
34403;SDS011;23116;47.660;9.126;2023-04-07T09:47:27;2.65;;;2.45;;
34403;SDS011;23116;47.660;9.126;2023-04-07T09:49:56;3.10;;;2.80;;
34403;SDS011;23116;47.660;9.126;2023-04-07T09:55:20;2.45;;;2.25;;
34403;SDS011;23116;47.660;9.126;2023-04-07T10:00:18;3.00;;;2.65;;
34403;SDS011;23116;47.660;9.126;2023-04-07T10:02:46;3.28;;;2.47;;
34403;SDS011;23116;47.660;9.126;2023-04-07T10:05:15;2.60;;;2.15;;
34403;SDS011;23116;47.660;9.126;2023-04-07T10:07:45;2.45;;;2.25;;
34403;SDS011;23116;47.660;9.126;2023-04-07T10:10:13;2.03;;;1.92;;
34403;SDS011;23116;47.660;9.126;2023-04-07T10:12:40;2.00;;;1.90;;
34403;SDS011;23116;47.660;9.126;2023-04-07T10:15:11;2.20;;;2.00;;
34403;SDS011;23116;47.660;9.126;2023-04-07T10:17:45;2.33;;;1.80;;
34403;SDS011;23116;47.660;9.126;2023-04-07T10:20:14;1.70;;;1.60;;
34403;SDS011;23116;47.660;9.126;2023-04-07T10:22:45;2.70;;;1.92;;
34403;SDS011;23116;47.660;9.126;2023-04-07T10:25:18;2.30;;;2.00;;
34403;SDS011;23116;47.660;9.126;2023-04-07T10:28:02;1.88;;;1.67;;
34403;SDS011;23116;47.660;9.126;2023-04-07T10:30:33;2.05;;;1.95;;
34403;SDS011;23116;47.660;9.126;2023-04-07T10:33:01;1.88;;;1.77;;
34403;SDS011;23116;47.660;9.126;2023-04-07T10:41:39;3.10;;;2.00;;
34403;SDS011;23116;47.660;9.126;2023-04-07T10:44:08;2.15;;;1.88;;
34403;SDS011;23116;47.660;9.126;2023-04-07T10:47:01;2.25;;;2.05;;
34403;SDS011;23116;47.660;9.126;2023-04-07T10:49:31;1.70;;;1.60;;
34403;SDS011;23116;47.660;9.126;2023-04-07T10:52:27;1.88;;;1.77;;
34403;SDS011;23116;47.660;9.126;2023-04-07T10:55:27;2.40;;;1.95;;
34403;SDS011;23116;47.660;9.126;2023-04-07T11:03:33;2.67;;;2.40;;
34403;SDS011;23116;47.660;9.126;2023-04-07T11:06:06;2.72;;;2.50;;
34403;SDS011;23116;47.660;9.126;2023-04-07T11:08:39;2.47;;;2.28;;
34403;SDS011;23116;47.660;9.126;2023-04-07T11:11:08;2.67;;;2.33;;
34403;SDS011;23116;47.660;9.126;2023-04-07T11:13:45;2.60;;;2.40;;
34403;SDS011;23116;47.660;9.126;2023-04-07T11:16:14;2.35;;;2.15;;
34403;SDS011;23116;47.660;9.126;2023-04-07T11:18:44;2.58;;;2.38;;
34403;SDS011;23116;47.660;9.126;2023-04-07T11:21:16;2.47;;;2.28;;
34403;SDS011;23116;47.660;9.126;2023-04-07T11:23:45;4.10;;;3.38;;
34403;SDS011;23116;47.660;9.126;2023-04-07T11:26:13;3.17;;;2.88;;
34403;SDS011;23116;47.660;9.126;2023-04-07T11:28:48;2.70;;;2.50;;
34403;SDS011;23116;47.660;9.126;2023-04-07T11:31:21;3.05;;;2.55;;
34403;SDS011;23116;47.660;9.126;2023-04-07T11:33:53;3.00;;;2.75;;
34403;SDS011;23116;47.660;9.126;2023-04-07T11:36:30;4.30;;;2.50;;
34403;SDS011;23116;47.660;9.126;2023-04-07T11:39:08;8.55;;;3.35;;
34403;SDS011;23116;47.660;9.126;2023-04-07T11:41:47;4.55;;;3.78;;
34403;SDS011;23116;47.660;9.126;2023-04-07T11:44:21;4.40;;;3.80;;
34403;SDS011;23116;47.660;9.126;2023-04-07T11:49:25;4.35;;;3.50;;
34403;SDS011;23116;47.660;9.126;2023-04-07T11:51:59;4.30;;;3.42;;
34403;SDS011;23116;47.660;9.126;2023-04-07T11:54:44;2.67;;;2.47;;
34403;SDS011;23116;47.660;9.126;2023-04-07T11:57:22;3.00;;;2.50;;
34403;SDS011;23116;47.660;9.126;2023-04-07T12:00:05;3.40;;;2.70;;
34403;SDS011;23116;47.660;9.126;2023-04-07T12:02:35;2.45;;;2.25;;
34403;SDS011;23116;47.660;9.126;2023-04-07T12:05:03;2.85;;;2.65;;
34403;SDS011;23116;47.660;9.126;2023-04-07T12:07:52;3.10;;;2.63;;
34403;SDS011;23116;47.660;9.126;2023-04-07T12:10:31;2.63;;;2.42;;
34403;SDS011;23116;47.660;9.126;2023-04-07T12:13:12;2.78;;;2.50;;
34403;SDS011;23116;47.660;9.126;2023-04-07T12:15:45;2.50;;;2.30;;
34403;SDS011;23116;47.660;9.126;2023-04-07T12:18:16;3.65;;;3.13;;
34403;SDS011;23116;47.660;9.126;2023-04-07T12:21:04;3.03;;;2.72;;
34403;SDS011;23116;47.660;9.126;2023-04-07T12:23:35;2.65;;;2.45;;
34403;SDS011;23116;47.660;9.126;2023-04-07T12:26:12;2.55;;;2.35;;
34403;SDS011;23116;47.660;9.126;2023-04-07T12:28:39;2.40;;;2.20;;
34403;SDS011;23116;47.660;9.126;2023-04-07T12:31:07;2.80;;;2.60;;
34403;SDS011;23116;47.660;9.126;2023-04-07T12:33:57;2.63;;;2.42;;
34403;SDS011;23116;47.660;9.126;2023-04-07T12:36:28;2.00;;;1.90;;
34403;SDS011;23116;47.660;9.126;2023-04-07T12:41:25;2.30;;;2.10;;
34403;SDS011;23116;47.660;9.126;2023-04-07T12:43:52;2.50;;;2.30;;
34403;SDS011;23116;47.660;9.126;2023-04-07T12:46:22;2.70;;;2.30;;
34403;SDS011;23116;47.660;9.126;2023-04-07T12:48:49;2.22;;;2.03;;
34403;SDS011;23116;47.660;9.126;2023-04-07T12:51:16;2.80;;;2.30;;
34403;SDS011;23116;47.660;9.126;2023-04-07T12:53:43;2.22;;;1.95;;
34403;SDS011;23116;47.660;9.126;2023-04-07T12:56:12;2.20;;;2.03;;
34403;SDS011;23116;47.660;9.126;2023-04-07T12:58:39;1.90;;;1.80;;
34403;SDS011;23116;47.660;9.126;2023-04-07T13:01:06;2.35;;;2.15;;
34403;SDS011;23116;47.660;9.126;2023-04-07T13:03:34;2.35;;;2.15;;
34403;SDS011;23116;47.660;9.126;2023-04-07T13:06:01;1.98;;;1.70;;
34403;SDS011;23116;47.660;9.126;2023-04-07T13:08:28;2.10;;;2.00;;
34403;SDS011;23116;47.660;9.126;2023-04-07T13:10:56;1.67;;;1.45;;
34403;SDS011;23116;47.660;9.126;2023-04-07T13:13:23;2.33;;;2.00;;
34403;SDS011;23116;47.660;9.126;2023-04-07T13:15:50;2.67;;;1.88;;
34403;SDS011;23116;47.660;9.126;2023-04-07T13:18:17;1.80;;;1.70;;
34403;SDS011;23116;47.660;9.126;2023-04-07T13:20:45;1.80;;;1.70;;
34403;SDS011;23116;47.660;9.126;2023-04-07T13:23:12;2.10;;;2.00;;
34403;SDS011;23116;47.660;9.126;2023-04-07T13:25:41;2.20;;;1.73;;
34403;SDS011;23116;47.660;9.126;2023-04-07T13:28:08;2.08;;;1.92;;
34403;SDS011;23116;47.660;9.126;2023-04-07T13:30:35;2.95;;;1.77;;
34403;SDS011;23116;47.660;9.126;2023-04-07T13:33:03;1.80;;;1.70;;
34403;SDS011;23116;47.660;9.126;2023-04-07T13:35:30;1.40;;;1.30;;
34403;SDS011;23116;47.660;9.126;2023-04-07T13:38:00;1.98;;;1.88;;
34403;SDS011;23116;47.660;9.126;2023-04-07T13:40:28;2.30;;;2.00;;
34403;SDS011;23116;47.660;9.126;2023-04-07T13:42:58;1.35;;;1.25;;
34403;SDS011;23116;47.660;9.126;2023-04-07T13:45:25;1.98;;;1.80;;
34403;SDS011;23116;47.660;9.126;2023-04-07T13:47:53;2.83;;;1.60;;
34403;SDS011;23116;47.660;9.126;2023-04-07T13:50:20;1.90;;;1.80;;
34403;SDS011;23116;47.660;9.126;2023-04-07T13:52:47;1.60;;;1.50;;
34403;SDS011;23116;47.660;9.126;2023-04-07T13:55:14;1.75;;;1.65;;
34403;SDS011;23116;47.660;9.126;2023-04-07T13:57:44;1.83;;;1.70;;
34403;SDS011;23116;47.660;9.126;2023-04-07T14:00:12;2.17;;;1.98;;
34403;SDS011;23116;47.660;9.126;2023-04-07T14:02:40;2.10;;;1.77;;
34403;SDS011;23116;47.660;9.126;2023-04-07T14:05:09;2.05;;;1.95;;
34403;SDS011;23116;47.660;9.126;2023-04-07T14:07:37;2.03;;;1.92;;
34403;SDS011;23116;47.660;9.126;2023-04-07T14:10:04;1.70;;;1.60;;
34403;SDS011;23116;47.660;9.126;2023-04-07T14:12:34;1.70;;;1.60;;
34403;SDS011;23116;47.660;9.126;2023-04-07T14:15:02;1.50;;;1.23;;
34403;SDS011;23116;47.660;9.126;2023-04-07T14:20:07;1.70;;;1.60;;
34403;SDS011;23116;47.660;9.126;2023-04-07T14:22:43;1.40;;;1.30;;
34403;SDS011;23116;47.660;9.126;2023-04-07T14:26:01;1.70;;;1.60;;
34403;SDS011;23116;47.660;9.126;2023-04-07T14:28:36;1.65;;;1.55;;
34403;SDS011;23116;47.660;9.126;2023-04-07T14:31:17;1.27;;;1.20;;
34403;SDS011;23116;47.660;9.126;2023-04-07T14:36:59;1.52;;;1.42;;
34403;SDS011;23116;47.660;9.126;2023-04-07T14:39:33;4.95;;;1.70;;
34403;SDS011;23116;47.660;9.126;2023-04-07T14:42:06;1.58;;;1.48;;
34403;SDS011;23116;47.660;9.126;2023-04-07T14:44:42;1.40;;;1.30;;
34403;SDS011;23116;47.660;9.126;2023-04-07T14:47:12;1.42;;;1.30;;
34403;SDS011;23116;47.660;9.126;2023-04-07T14:49:43;1.13;;;1.08;;
34403;SDS011;23116;47.660;9.126;2023-04-07T14:52:12;2.20;;;1.60;;
34403;SDS011;23116;47.660;9.126;2023-04-07T14:54:40;1.92;;;1.65;;
34403;SDS011;23116;47.660;9.126;2023-04-07T14:57:28;0.90;;;0.90;;
34403;SDS011;23116;47.660;9.126;2023-04-07T15:00:24;2.85;;;1.10;;
34403;SDS011;23116;47.660;9.126;2023-04-07T15:02:53;1.23;;;1.13;;
34403;SDS011;23116;47.660;9.126;2023-04-07T15:05:20;2.22;;;1.60;;
34403;SDS011;23116;47.660;9.126;2023-04-07T15:07:47;1.40;;;1.30;;
34403;SDS011;23116;47.660;9.126;2023-04-07T15:10:16;1.05;;;1.05;;
34403;SDS011;23116;47.660;9.126;2023-04-07T15:12:44;1.55;;;1.10;;
34403;SDS011;23116;47.660;9.126;2023-04-07T15:15:13;1.20;;;1.10;;
34403;SDS011;23116;47.660;9.126;2023-04-07T15:17:40;1.30;;;1.20;;
34403;SDS011;23116;47.660;9.126;2023-04-07T15:20:08;1.40;;;1.30;;
34403;SDS011;23116;47.660;9.126;2023-04-07T15:22:36;1.10;;;1.10;;
34403;SDS011;23116;47.660;9.126;2023-04-07T15:25:04;1.10;;;1.10;;
34403;SDS011;23116;47.660;9.126;2023-04-07T15:27:51;1.20;;;1.10;;
34403;SDS011;23116;47.660;9.126;2023-04-07T15:30:18;1.00;;;0.93;;
34403;SDS011;23116;47.660;9.126;2023-04-07T15:32:56;1.10;;;1.00;;
34403;SDS011;23116;47.660;9.126;2023-04-07T15:35:24;1.40;;;1.15;;
34403;SDS011;23116;47.660;9.126;2023-04-07T15:37:52;1.27;;;1.20;;
34403;SDS011;23116;47.660;9.126;2023-04-07T15:40:19;1.10;;;1.00;;
34403;SDS011;23116;47.660;9.126;2023-04-07T15:42:47;1.00;;;1.00;;
34403;SDS011;23116;47.660;9.126;2023-04-07T15:45:14;1.27;;;1.15;;
34403;SDS011;23116;47.660;9.126;2023-04-07T15:47:41;1.30;;;1.10;;
34403;SDS011;23116;47.660;9.126;2023-04-07T15:50:08;1.08;;;1.08;;
34403;SDS011;23116;47.660;9.126;2023-04-07T15:52:35;1.25;;;1.00;;
34403;SDS011;23116;47.660;9.126;2023-04-07T15:55:03;1.25;;;1.15;;
34403;SDS011;23116;47.660;9.126;2023-04-07T15:57:30;0.88;;;0.88;;
34403;SDS011;23116;47.660;9.126;2023-04-07T15:59:57;1.23;;;1.13;;
34403;SDS011;23116;47.660;9.126;2023-04-07T16:02:24;1.48;;;1.38;;
34403;SDS011;23116;47.660;9.126;2023-04-07T16:04:52;1.67;;;1.40;;
34403;SDS011;23116;47.660;9.126;2023-04-07T16:07:19;1.52;;;1.00;;
34403;SDS011;23116;47.660;9.126;2023-04-07T16:09:46;1.45;;;1.33;;
34403;SDS011;23116;47.660;9.126;2023-04-07T16:12:13;1.30;;;1.20;;
34403;SDS011;23116;47.660;9.126;2023-04-07T16:14:42;3.92;;;1.35;;
34403;SDS011;23116;47.660;9.126;2023-04-07T16:17:10;1.40;;;1.30;;
34403;SDS011;23116;47.660;9.126;2023-04-07T16:19:37;1.52;;;1.08;;
34403;SDS011;23116;47.660;9.126;2023-04-07T16:22:04;1.77;;;1.30;;
34403;SDS011;23116;47.660;9.126;2023-04-07T16:24:31;1.08;;;1.08;;
34403;SDS011;23116;47.660;9.126;2023-04-07T16:26:58;1.25;;;1.15;;
34403;SDS011;23116;47.660;9.126;2023-04-07T16:29:26;1.20;;;1.10;;
34403;SDS011;23116;47.660;9.126;2023-04-07T16:31:54;3.08;;;1.35;;
34403;SDS011;23116;47.660;9.126;2023-04-07T16:34:21;1.23;;;1.13;;